METAR Data
IDs: Format: Raw Decoded Include TAF

Data at: 2224 UTC 01 Dec 2021

ETHL 012120Z 25015KT 9999 SCT015 BKN027 06/03 Q1000 BLU